createdAt,value
2023-05-01T00:00:32.780Z,0
2023-05-01T00:01:49.741Z,0
2023-05-01T00:03:06.906Z,0
2023-05-01T00:04:23.845Z,0
2023-05-01T00:05:40.808Z,0
2023-05-01T00:06:57.794Z,0
2023-05-01T00:08:14.818Z,0
2023-05-01T00:09:31.801Z,0
2023-05-01T00:10:48.779Z,0
2023-05-01T00:12:05.769Z,0
2023-05-01T00:13:22.836Z,0
2023-05-01T00:14:39.800Z,0
2023-05-01T00:15:56.796Z,0
2023-05-01T00:17:13.754Z,0
2023-05-01T00:18:30.780Z,0
2023-05-01T00:19:47.769Z,0
2023-05-01T00:21:04.774Z,0
2023-05-01T00:22:21.797Z,0
2023-05-01T00:23:38.825Z,0
2023-05-01T00:24:55.812Z,0
2023-05-01T00:26:12.813Z,0
2023-05-01T00:27:29.884Z,0
2023-05-01T00:28:46.859Z,0
2023-05-01T00:30:03.849Z,0
2023-05-01T00:31:20.802Z,0
2023-05-01T00:32:37.925Z,0
2023-05-01T00:33:54.813Z,0.18
2023-05-01T00:35:11.775Z,0
2023-05-01T00:36:28.854Z,0.3
2023-05-01T00:37:45.816Z,0.48
2023-05-01T00:39:02.807Z,0.49
2023-05-01T00:40:19.799Z,0.63
2023-05-01T00:41:36.817Z,0.6
2023-05-01T00:42:53.874Z,0.53
2023-05-01T00:44:10.803Z,0.4
2023-05-01T00:45:27.865Z,0.2
2023-05-01T00:46:44.874Z,0
2023-05-01T00:48:01.952Z,0
2023-05-01T00:49:18.822Z,0
2023-05-01T00:50:36.225Z,0
2023-05-01T00:51:52.849Z,0
2023-05-01T00:53:09.878Z,0
2023-05-01T00:54:26.825Z,0
2023-05-01T00:55:43.854Z,0
2023-05-01T00:57:00.831Z,0
2023-05-01T00:58:17.844Z,0
2023-05-01T00:59:34.891Z,0
2023-05-01T01:00:51.885Z,0
2023-05-01T01:02:08.876Z,0
2023-05-01T01:03:25.856Z,0
2023-05-01T01:04:42.901Z,0
2023-05-01T01:05:59.852Z,0
2023-05-01T01:07:16.869Z,0
2023-05-01T01:08:33.849Z,0
2023-05-01T01:09:50.855Z,0
2023-05-01T01:11:07.861Z,0
2023-05-01T01:12:24.834Z,0
2023-05-01T01:13:41.902Z,0
2023-05-01T01:14:58.845Z,0
2023-05-01T01:16:16.778Z,0
2023-05-01T01:17:33.866Z,0
2023-05-01T01:18:50.955Z,0
2023-05-01T01:20:07.908Z,0
2023-05-01T01:21:24.895Z,0
2023-05-01T01:22:41.930Z,0
2023-05-01T01:23:58.881Z,0
2023-05-01T01:25:15.872Z,0
2023-05-01T01:26:32.880Z,0
2023-05-01T01:27:49.900Z,0
2023-05-01T01:29:06.918Z,0
2023-05-01T01:30:23.870Z,0
2023-05-01T01:31:41.102Z,0
2023-05-01T01:32:57.904Z,0
2023-05-01T01:34:14.917Z,0
2023-05-01T01:35:31.915Z,0
2023-05-01T01:36:48.884Z,0
2023-05-01T01:38:05.924Z,0
2023-05-01T01:39:22.866Z,0
2023-05-01T01:40:39.938Z,0
2023-05-01T01:41:56.955Z,0
2023-05-01T01:43:14.000Z,0
2023-05-01T01:44:30.888Z,0
2023-05-01T01:45:47.966Z,0
2023-05-01T01:47:04.895Z,0
2023-05-01T01:48:21.936Z,0
2023-05-01T01:49:38.921Z,0
2023-05-01T01:50:55.889Z,0
2023-05-01T01:52:12.902Z,0
2023-05-01T01:53:29.960Z,0
2023-05-01T01:54:46.900Z,0
2023-05-01T01:56:04.053Z,0
2023-05-01T01:57:20.913Z,0.2
2023-05-01T01:58:37.925Z,0
2023-05-01T01:59:55.149Z,0
2023-05-01T02:01:12.031Z,0
2023-05-01T02:02:29.006Z,0
2023-05-01T02:03:46.220Z,0
2023-05-01T02:05:03.029Z,0
2023-05-01T02:06:19.965Z,0
2023-05-01T02:07:36.988Z,0
2023-05-01T02:08:53.926Z,0
2023-05-01T02:10:10.978Z,0
2023-05-01T02:11:27.945Z,0
2023-05-01T02:12:44.936Z,0
2023-05-01T02:14:01.948Z,0
2023-05-01T02:15:18.963Z,0
2023-05-01T02:16:36.140Z,0
2023-05-01T02:17:53.270Z,0
2023-05-01T02:19:09.928Z,0
2023-05-01T02:20:26.967Z,0
2023-05-01T02:21:44.015Z,0
2023-05-01T02:23:01.113Z,0
2023-05-01T02:24:17.953Z,0
2023-05-01T02:25:34.968Z,0
2023-05-01T02:26:52.094Z,0
2023-05-01T02:28:08.937Z,0
2023-05-01T02:29:26.024Z,0
2023-05-01T02:30:42.997Z,0
2023-05-01T02:32:00.000Z,0
2023-05-01T02:33:17.096Z,0
2023-05-01T02:34:34.006Z,0
2023-05-01T02:35:51.008Z,0
2023-05-01T02:37:07.956Z,0
2023-05-01T02:38:24.963Z,0
2023-05-01T02:39:41.970Z,0
2023-05-01T02:40:59.012Z,0
2023-05-01T02:42:16.067Z,0
2023-05-01T02:43:32.997Z,0
2023-05-01T02:44:49.974Z,0
2023-05-01T02:46:06.997Z,0
2023-05-01T02:47:24.135Z,0
2023-05-01T02:48:40.994Z,0
2023-05-01T02:49:58.299Z,0
2023-05-01T02:51:15.020Z,0
2023-05-01T02:52:31.980Z,0
2023-05-01T02:53:49.027Z,0
2023-05-01T02:55:05.985Z,0
2023-05-01T02:56:23.054Z,0
2023-05-01T02:57:40.007Z,0
2023-05-01T02:58:57.002Z,0
2023-05-01T03:00:14.362Z,0
2023-05-01T03:01:31.162Z,0
2023-05-01T03:02:48.062Z,0
2023-05-01T03:04:05.037Z,0
2023-05-01T03:05:22.074Z,0
2023-05-01T03:06:39.189Z,0
2023-05-01T03:07:56.039Z,0
2023-05-01T03:09:13.011Z,0.2
2023-05-01T03:10:30.007Z,0
2023-05-01T03:11:47.027Z,0
2023-05-01T03:13:04.046Z,0.18
2023-05-01T03:14:21.094Z,0.3
2023-05-01T03:15:38.040Z,0.58
2023-05-01T03:16:55.075Z,0.11
2023-05-01T03:18:13.179Z,0
2023-05-01T03:19:30.057Z,0
2023-05-01T03:20:47.043Z,0
2023-05-01T03:22:04.028Z,0
2023-05-01T03:23:21.021Z,0
2023-05-01T03:24:38.013Z,0
2023-05-01T03:25:55.079Z,0
2023-05-01T03:27:12.035Z,0
2023-05-01T03:28:29.073Z,0
2023-05-01T03:29:46.337Z,0
2023-05-01T03:31:03.125Z,0
2023-05-01T03:32:20.131Z,0
2023-05-01T03:33:37.028Z,0
2023-05-01T03:34:54.137Z,0
2023-05-01T03:36:11.122Z,0
2023-05-01T03:37:28.042Z,0
2023-05-01T03:38:45.054Z,0
2023-05-01T03:40:02.110Z,0
2023-05-01T03:41:19.543Z,0
2023-05-01T03:42:36.071Z,0
2023-05-01T03:43:53.107Z,0
2023-05-01T03:45:10.058Z,0
2023-05-01T03:46:27.172Z,0
2023-05-01T03:47:44.118Z,0
2023-05-01T03:49:01.078Z,0
2023-05-01T03:50:18.100Z,0
2023-05-01T03:51:35.249Z,0
2023-05-01T03:52:52.087Z,0
2023-05-01T03:54:09.045Z,0
2023-05-01T03:55:26.087Z,0
2023-05-01T03:56:43.082Z,0
2023-05-01T03:58:00.062Z,0
2023-05-01T03:59:17.062Z,0
2023-05-01T04:00:34.105Z,0
2023-05-01T04:01:51.168Z,0
2023-05-01T04:03:08.124Z,0
2023-05-01T04:04:25.122Z,0
2023-05-01T04:05:42.130Z,0
2023-05-01T04:06:59.187Z,0
2023-05-01T04:08:16.079Z,0
2023-05-01T04:09:33.090Z,0
2023-05-01T04:10:50.128Z,0
2023-05-01T04:12:07.086Z,0
2023-05-01T04:13:24.205Z,0
2023-05-01T04:14:41.105Z,0
2023-05-01T04:15:58.183Z,0.18
2023-05-01T04:17:15.090Z,0.41
2023-05-01T04:18:32.134Z,0.38
2023-05-01T04:19:49.096Z,0.11
2023-05-01T04:21:06.225Z,0.12
2023-05-01T04:22:23.109Z,0.14
2023-05-01T04:23:40.103Z,0
2023-05-01T04:24:57.141Z,0
2023-05-01T04:26:14.161Z,0
2023-05-01T04:27:31.137Z,0
2023-05-01T04:28:48.120Z,0
2023-05-01T04:30:05.125Z,0
2023-05-01T04:31:22.145Z,0
2023-05-01T04:32:39.232Z,0
2023-05-01T04:33:56.174Z,0
2023-05-01T04:35:13.112Z,0.11
2023-05-01T04:36:30.165Z,0
2023-05-01T04:37:47.107Z,0
2023-05-01T04:39:04.314Z,0
2023-05-01T04:40:21.151Z,0
2023-05-01T04:41:38.553Z,0.12
2023-05-01T04:42:56.282Z,0.28
2023-05-01T04:44:13.247Z,0.15
2023-05-01T04:45:30.121Z,0.23
2023-05-01T04:46:47.181Z,0
2023-05-01T04:48:04.187Z,0
2023-05-01T04:49:21.180Z,0
2023-05-01T04:50:38.140Z,0
2023-05-01T04:51:55.185Z,0.16
2023-05-01T04:53:12.222Z,0
2023-05-01T04:54:29.167Z,0.21
2023-05-01T04:55:46.149Z,0.2
2023-05-01T04:57:03.197Z,0.4
2023-05-01T04:58:20.168Z,0.21
2023-05-01T04:59:37.276Z,0.34
2023-05-01T05:00:54.223Z,0.34
2023-05-01T05:02:11.144Z,0.27
2023-05-01T05:03:28.235Z,0.27
2023-05-01T05:04:45.164Z,0.3
2023-05-01T05:06:02.204Z,0.44
2023-05-01T05:07:19.223Z,0.26
2023-05-01T05:08:36.160Z,0.44
2023-05-01T05:09:53.318Z,0.34
2023-05-01T05:11:10.307Z,0.41
2023-05-01T05:12:27.181Z,0.39
2023-05-01T05:13:44.543Z,0.24
2023-05-01T05:15:01.171Z,0.29
2023-05-01T05:16:18.202Z,0.35
2023-05-01T05:17:35.212Z,0.24
2023-05-01T05:18:52.150Z,0.49
2023-05-01T05:20:09.184Z,0.66
2023-05-01T05:21:26.230Z,0.67
2023-05-01T05:22:43.212Z,0.82
2023-05-01T05:24:00.213Z,0.41
2023-05-01T05:25:17.173Z,0.68
2023-05-01T05:26:34.169Z,0.55
2023-05-01T05:27:51.187Z,0.36
2023-05-01T05:29:08.196Z,0.48
2023-05-01T05:30:25.197Z,0.64
2023-05-01T05:31:42.206Z,0.35
2023-05-01T05:32:59.244Z,0.7
2023-05-01T05:34:16.258Z,0.86
2023-05-01T05:35:33.184Z,0.62
2023-05-01T05:36:50.189Z,0.66
2023-05-01T05:38:07.220Z,0.64
2023-05-01T05:39:24.241Z,0.7
2023-05-01T05:40:41.188Z,0.43
2023-05-01T05:41:58.222Z,0.63
2023-05-01T05:43:15.216Z,0.52
2023-05-01T05:44:32.205Z,0.34
2023-05-01T05:45:49.237Z,0.33
2023-05-01T05:47:06.262Z,0.72
2023-05-01T05:48:23.322Z,0.34
2023-05-01T05:49:40.211Z,0.78
2023-05-01T05:50:57.215Z,0.5
2023-05-01T05:52:14.274Z,0.56
2023-05-01T05:53:31.235Z,0.81
2023-05-01T05:54:48.217Z,0.35
2023-05-01T05:56:05.273Z,0.59
2023-05-01T05:57:22.262Z,0.59
2023-05-01T05:58:39.242Z,1
2023-05-01T05:59:56.414Z,0.81
2023-05-01T06:01:13.248Z,1.37
2023-05-01T06:02:30.421Z,0.85
2023-05-01T06:03:47.290Z,0.4
2023-05-01T06:05:04.273Z,0.74
2023-05-01T06:06:21.279Z,0.87
2023-05-01T06:07:39.467Z,1.23
2023-05-01T06:08:56.273Z,1.08
2023-05-01T06:10:13.239Z,0.9
2023-05-01T06:11:30.291Z,1.5
2023-05-01T06:12:47.907Z,1.6
2023-05-01T06:14:04.280Z,1.64
2023-05-01T06:15:21.268Z,1.87
2023-05-01T06:16:38.442Z,1.31
2023-05-01T06:17:55.304Z,1.12
2023-05-01T06:19:12.265Z,0.73
2023-05-01T06:20:29.320Z,0.72
2023-05-01T06:21:46.288Z,0.71
2023-05-01T06:23:03.368Z,1.71
2023-05-01T06:24:20.336Z,1
2023-05-01T06:25:37.252Z,0.97
2023-05-01T06:26:54.341Z,1.98
2023-05-01T06:28:11.263Z,1.25
2023-05-01T06:29:28.493Z,1.55
2023-05-01T06:30:45.329Z,1.13
2023-05-01T06:32:02.347Z,1.01
2023-05-01T06:33:19.272Z,1.55
2023-05-01T06:34:36.284Z,1.68
2023-05-01T06:35:53.296Z,2.93
2023-05-01T06:37:10.302Z,1.6
2023-05-01T06:38:27.348Z,1.94
2023-05-01T06:39:44.343Z,1.88
2023-05-01T06:41:01.302Z,1.87
2023-05-01T06:42:18.332Z,0.96
2023-05-01T06:43:35.286Z,2.01
2023-05-01T06:44:52.293Z,1.09
2023-05-01T06:46:09.371Z,1.35
2023-05-01T06:47:26.402Z,1.12
2023-05-01T06:48:43.361Z,1.37
2023-05-01T06:50:01.815Z,1.6
2023-05-01T06:51:17.321Z,1.44
2023-05-01T06:52:34.326Z,0.9
2023-05-01T06:53:51.337Z,1.27
2023-05-01T06:55:08.375Z,1.14
2023-05-01T06:56:25.316Z,1.37
2023-05-01T06:57:42.340Z,2.5
2023-05-01T06:58:59.320Z,3.52
2023-05-01T07:00:17.542Z,1.67
2023-05-01T07:01:35.487Z,1.67
2023-05-01T07:02:51.431Z,2.44
2023-05-01T07:04:08.337Z,1.86
2023-05-01T07:05:25.421Z,2.17
2023-05-01T07:06:42.530Z,1.72
2023-05-01T07:08:01.451Z,2.3
2023-05-01T07:09:16.327Z,1.96
2023-05-01T07:10:33.448Z,2.46
2023-05-01T07:11:50.324Z,1.81
2023-05-01T07:13:07.334Z,1.85
2023-05-01T07:14:24.308Z,1.87
2023-05-01T07:15:41.365Z,1.53
2023-05-01T07:16:58.433Z,1.52
2023-05-01T07:18:15.377Z,1.2
2023-05-01T07:19:34.750Z,1.96
2023-05-01T07:20:51.338Z,1.37
2023-05-01T07:22:08.396Z,1.29
2023-05-01T07:23:25.436Z,0.8
2023-05-01T07:24:42.358Z,1.38
2023-05-01T07:25:59.387Z,1.93
2023-05-01T07:27:17.068Z,2.27
2023-05-01T07:28:34.345Z,0.89
2023-05-01T07:29:51.354Z,1.59
2023-05-01T07:31:08.368Z,2.32
2023-05-01T07:32:25.392Z,1.08
2023-05-01T07:33:42.380Z,2.12
2023-05-01T07:34:59.365Z,1.75
2023-05-01T07:36:16.466Z,1.2
2023-05-01T07:37:33.387Z,1.46
2023-05-01T07:38:50.447Z,1.89
2023-05-01T07:40:07.464Z,1.31
2023-05-01T07:41:24.426Z,1.22
2023-05-01T07:42:41.477Z,1.1
2023-05-01T07:43:58.396Z,2.01
2023-05-01T07:45:15.416Z,2.6
2023-05-01T07:46:32.534Z,2.58
2023-05-01T07:47:49.457Z,2.92
2023-05-01T07:49:06.413Z,2.48
2023-05-01T07:50:23.389Z,2.43
2023-05-01T07:51:40.439Z,2.76
2023-05-01T07:52:57.513Z,3.42
2023-05-01T07:54:14.415Z,2.69
2023-05-01T07:55:31.453Z,3.23
2023-05-01T07:56:49.812Z,2.15
2023-05-01T07:58:05.440Z,1.5
2023-05-01T07:59:22.429Z,2.31
2023-05-01T08:00:39.401Z,2.81
2023-05-01T08:01:56.452Z,2.62
2023-05-01T08:03:13.609Z,2.42
2023-05-01T08:04:30.417Z,2.45
2023-05-01T08:05:47.410Z,2.45
2023-05-01T08:07:04.447Z,2.45
2023-05-01T08:08:21.592Z,2.36
2023-05-01T08:09:38.629Z,2.74
2023-05-01T08:10:55.451Z,2.25
2023-05-01T08:12:12.463Z,3.48
2023-05-01T08:13:29.460Z,2.87
2023-05-01T08:14:46.439Z,3.38
2023-05-01T08:16:03.568Z,2.91
2023-05-01T08:17:20.524Z,3.45
2023-05-01T08:18:37.480Z,2.67
2023-05-01T08:19:54.828Z,4.19
2023-05-01T08:21:11.437Z,2.87
2023-05-01T08:22:28.500Z,3.35
2023-05-01T08:23:45.723Z,3.05
2023-05-01T08:25:02.494Z,2.22
2023-05-01T08:26:20.815Z,1.95
2023-05-01T08:27:36.505Z,2.42
2023-05-01T08:28:53.517Z,1.97
2023-05-01T08:30:10.495Z,2.58
2023-05-01T08:31:27.505Z,2
2023-05-01T08:32:44.565Z,2.77
2023-05-01T08:34:01.476Z,2.78
2023-05-01T08:35:18.460Z,3.03
2023-05-01T08:36:35.514Z,2.11
2023-05-01T08:37:52.546Z,3
2023-05-01T08:39:09.561Z,2.91
2023-05-01T08:40:26.564Z,2.18
2023-05-01T08:41:43.483Z,1.21
2023-05-01T08:43:00.535Z,1.74
2023-05-01T08:44:17.600Z,2.7
2023-05-01T08:45:34.499Z,1.53
2023-05-01T08:46:51.549Z,2.51
2023-05-01T08:48:08.579Z,2.23
2023-05-01T08:49:25.599Z,3.03
2023-05-01T08:50:42.529Z,2.45
2023-05-01T08:51:59.526Z,1.62
2023-05-01T08:53:16.623Z,1.93
2023-05-01T08:54:33.528Z,1.57
2023-05-01T08:55:50.504Z,1.85
2023-05-01T08:57:09.682Z,2.1
2023-05-01T08:58:24.773Z,2.04
2023-05-01T08:59:41.513Z,2.69
2023-05-01T09:00:58.580Z,1.88
2023-05-01T09:02:15.516Z,1.69
2023-05-01T09:03:32.568Z,2.46
2023-05-01T09:04:49.598Z,2.78
2023-05-01T09:06:06.586Z,2.89
2023-05-01T09:07:23.601Z,3.42
2023-05-01T09:08:40.545Z,2.22
2023-05-01T09:09:57.784Z,1.76
2023-05-01T09:11:14.546Z,2.44
2023-05-01T09:12:31.614Z,1.6
2023-05-01T09:13:48.631Z,2.47
2023-05-01T09:15:05.576Z,1.94
2023-05-01T09:16:22.577Z,2.76
2023-05-01T09:17:39.622Z,1.97
2023-05-01T09:18:56.548Z,2.31
2023-05-01T09:20:13.566Z,2.22
2023-05-01T09:21:30.672Z,2.49
2023-05-01T09:22:47.549Z,1.43
2023-05-01T09:24:04.562Z,1.47
2023-05-01T09:25:21.561Z,1.84
2023-05-01T09:26:38.603Z,1.93
2023-05-01T09:27:55.587Z,3.25
2023-05-01T09:29:12.661Z,2.6
2023-05-01T09:30:29.563Z,2.88
2023-05-01T09:31:46.657Z,1.73
2023-05-01T09:33:03.611Z,0.95
2023-05-01T09:34:20.602Z,2.31
2023-05-01T09:35:37.650Z,2.28
2023-05-01T09:36:54.597Z,1.83
2023-05-01T09:38:11.621Z,2.2
2023-05-01T09:39:28.646Z,3.06
2023-05-01T09:40:45.589Z,2.94
2023-05-01T09:42:02.587Z,1.59
2023-05-01T09:43:19.578Z,3.8
2023-05-01T09:44:36.647Z,2.74
2023-05-01T09:45:53.785Z,1.9
2023-05-01T09:47:10.696Z,2.65
2023-05-01T09:48:27.674Z,2.09
2023-05-01T09:49:44.632Z,1.71
2023-05-01T09:51:01.601Z,2.36
2023-05-01T09:52:18.621Z,2.5
2023-05-01T09:53:35.620Z,2.5
2023-05-01T09:54:52.612Z,3.1
2023-05-01T09:56:09.639Z,2.11
2023-05-01T09:57:26.630Z,2.24
2023-05-01T09:58:43.680Z,1.26
2023-05-01T10:00:00.618Z,1.87
2023-05-01T10:01:17.792Z,3.29
2023-05-01T10:02:34.688Z,2.08
2023-05-01T10:03:51.827Z,1.23
2023-05-01T10:05:08.777Z,2.02
2023-05-01T10:06:25.768Z,2.03
2023-05-01T10:07:42.654Z,2.25
2023-05-01T10:08:59.679Z,1.27
2023-05-01T10:10:16.705Z,2.54
2023-05-01T10:11:34.087Z,1.11
2023-05-01T10:12:50.782Z,1.78
2023-05-01T10:14:07.625Z,2.51
2023-05-01T10:15:26.464Z,1.87
2023-05-01T10:16:41.728Z,1.64
2023-05-01T10:17:58.675Z,1.94
2023-05-01T10:19:15.723Z,1.46
2023-05-01T10:20:32.745Z,1.81
2023-05-01T10:21:49.731Z,2.01
2023-05-01T10:23:06.687Z,1.79
2023-05-01T10:24:23.652Z,3.08
2023-05-01T10:25:40.700Z,1.56
2023-05-01T10:26:57.717Z,2.61
2023-05-01T10:28:14.666Z,1.9
2023-05-01T10:29:31.685Z,2.57
2023-05-01T10:30:48.801Z,1.07
2023-05-01T10:32:05.687Z,1.43
2023-05-01T10:33:22.780Z,1.98
2023-05-01T10:34:39.706Z,1.3
2023-05-01T10:35:56.730Z,1.56
2023-05-01T10:37:13.733Z,2.13
2023-05-01T10:38:30.707Z,1.38
2023-05-01T10:39:47.744Z,0.92
2023-05-01T10:41:04.801Z,1.51
2023-05-01T10:42:21.696Z,1.05
2023-05-01T10:43:38.738Z,1.56
2023-05-01T10:44:55.940Z,0.53
2023-05-01T10:46:12.864Z,1
2023-05-01T10:47:29.812Z,0.68
2023-05-01T10:48:46.719Z,1.23
2023-05-01T10:50:03.839Z,0.58
2023-05-01T10:51:20.788Z,0.66
2023-05-01T10:52:37.696Z,1.33
2023-05-01T10:53:54.751Z,1.18
2023-05-01T10:55:11.701Z,1.64
2023-05-01T10:56:28.757Z,1.04
2023-05-01T10:57:45.718Z,1.7
2023-05-01T10:59:02.881Z,1.83
2023-05-01T11:00:19.719Z,1.92
2023-05-01T11:01:36.868Z,1.8
2023-05-01T11:02:53.803Z,0.56
2023-05-01T11:04:10.815Z,1.18
2023-05-01T11:05:38.114Z,1.51
2023-05-01T11:06:44.840Z,1.5
2023-05-01T11:08:01.725Z,0.6
2023-05-01T11:09:18.732Z,1.01
2023-05-01T11:10:35.809Z,0.56
2023-05-01T11:11:52.799Z,1.87
2023-05-01T11:13:09.799Z,2.09
2023-05-01T11:14:26.759Z,3.44
2023-05-01T11:15:43.724Z,2.43
2023-05-01T11:17:00.774Z,2.39
2023-05-01T11:18:17.778Z,1.59
2023-05-01T11:19:34.773Z,1.91
2023-05-01T11:20:51.783Z,2.24
2023-05-01T11:22:08.804Z,1.79
2023-05-01T11:23:25.932Z,1.73
2023-05-01T11:24:42.801Z,0.97
2023-05-01T11:25:59.779Z,0.83
2023-05-01T11:27:16.786Z,0.99
2023-05-01T11:28:33.911Z,1.85
2023-05-01T11:29:50.788Z,1.66
2023-05-01T11:31:07.768Z,2.3
2023-05-01T11:32:24.911Z,1.63
2023-05-01T11:33:41.797Z,0.9
2023-05-01T11:34:59.023Z,2.96
2023-05-01T11:36:15.772Z,3.65
2023-05-01T11:37:32.789Z,2.23
2023-05-01T11:38:49.800Z,1.19
2023-05-01T11:40:06.878Z,1.84
2023-05-01T11:41:23.836Z,1.8
2023-05-01T11:42:40.848Z,1.64
2023-05-01T11:43:57.882Z,0.63
2023-05-01T11:45:14.796Z,2.4
2023-05-01T11:46:32.197Z,3.57
2023-05-01T11:47:48.972Z,2.41
2023-05-01T11:49:06.191Z,2.28
2023-05-01T11:50:23.329Z,1.88
2023-05-01T11:51:40.415Z,1.61
2023-05-01T11:52:58.057Z,3.36
2023-05-01T11:54:16.018Z,2.76
2023-05-01T11:55:32.896Z,1.58
2023-05-01T11:56:49.795Z,2.69
2023-05-01T11:58:06.907Z,2.72
2023-05-01T11:59:23.889Z,2.71
2023-05-01T12:00:40.812Z,1.39
2023-05-01T12:01:57.855Z,2.74
2023-05-01T12:03:15.471Z,3.99
2023-05-01T12:04:32.599Z,2.82
2023-05-01T12:05:48.848Z,2.76
2023-05-01T12:07:05.837Z,2.61
2023-05-01T12:08:22.983Z,2.65
2023-05-01T12:09:39.858Z,3.83
2023-05-01T12:10:56.889Z,2.3
2023-05-01T12:12:13.850Z,2.26
2023-05-01T12:13:30.864Z,3.2
2023-05-01T12:14:47.980Z,2.59
2023-05-01T12:16:04.925Z,1.27
2023-05-01T12:17:22.056Z,1.88
2023-05-01T12:18:38.837Z,1.79
2023-05-01T12:19:55.855Z,1.87
2023-05-01T12:21:13.213Z,0.83
2023-05-01T12:22:29.844Z,1.85
2023-05-01T12:23:46.865Z,2.34
2023-05-01T12:25:03.888Z,1.66
2023-05-01T12:26:20.893Z,1.71
2023-05-01T12:27:37.845Z,1.77
2023-05-01T12:28:55.175Z,1.63
2023-05-01T12:30:12.162Z,2.26
2023-05-01T12:31:29.215Z,1.04
2023-05-01T12:32:45.920Z,1.07
2023-05-01T12:34:03.008Z,4.08
2023-05-01T12:35:19.991Z,3.02
2023-05-01T12:36:36.896Z,2.62
2023-05-01T12:37:53.908Z,2.65
2023-05-01T12:39:10.902Z,3.58
2023-05-01T12:40:27.936Z,2.17
2023-05-01T12:41:45.087Z,1.7
2023-05-01T12:43:01.882Z,1.61
2023-05-01T12:44:18.900Z,1.25
2023-05-01T12:45:35.922Z,2.11
2023-05-01T12:46:53.076Z,1.59
2023-05-01T12:48:09.930Z,1.84
2023-05-01T12:49:26.916Z,3.38
2023-05-01T12:50:45.394Z,2.52
2023-05-01T12:52:00.884Z,2.93
2023-05-01T12:53:18.469Z,2.59
2023-05-01T12:54:34.985Z,2.16
2023-05-01T12:55:53.483Z,3.17
2023-05-01T12:57:11.081Z,3.06
2023-05-01T12:58:29.516Z,1.5
2023-05-01T12:59:44.983Z,3.15
2023-05-01T13:01:01.940Z,2.95
2023-05-01T13:02:19.065Z,1.56
2023-05-01T13:03:39.284Z,2.25
2023-05-01T13:04:53.050Z,1.14
2023-05-01T13:06:09.932Z,2.73
2023-05-01T13:07:26.988Z,3.93
2023-05-01T13:08:43.925Z,3.9
2023-05-01T13:10:01.300Z,4.39
2023-05-01T13:11:17.978Z,2.85
2023-05-01T13:12:34.902Z,2.35
2023-05-01T13:13:51.978Z,3.29
2023-05-01T13:15:09.498Z,2.05
2023-05-01T13:16:26.989Z,2.2
2023-05-01T13:17:44.040Z,2.17
2023-05-01T13:19:00.936Z,3.26
2023-05-01T13:20:18.043Z,1.85
2023-05-01T13:21:34.952Z,1.53
2023-05-01T13:22:51.958Z,1.13
2023-05-01T13:24:08.970Z,2.51
2023-05-01T13:25:26.027Z,2.15
2023-05-01T13:26:43.021Z,1.92
2023-05-01T13:28:00.078Z,1.95
2023-05-01T13:29:17.176Z,2.77
2023-05-01T13:30:34.368Z,2.54
2023-05-01T13:31:51.667Z,1.93
2023-05-01T13:33:09.110Z,2.29
2023-05-01T13:34:26.355Z,3.15
2023-05-01T13:35:43.395Z,1.99
2023-05-01T13:37:00.749Z,1.68
2023-05-01T13:38:18.710Z,2.19
2023-05-01T13:39:35.981Z,1.3
2023-05-01T13:40:53.042Z,2.17
2023-05-01T13:42:09.975Z,2.27
2023-05-01T13:43:27.084Z,2.92
2023-05-01T13:44:43.986Z,2.89
2023-05-01T13:46:01.046Z,2.14
2023-05-01T13:47:18.229Z,2.33
2023-05-01T13:48:35.067Z,1.58
2023-05-01T13:49:52.047Z,1.45
2023-05-01T13:51:09.070Z,1.74
2023-05-01T13:52:25.991Z,1.37
2023-05-01T13:53:43.116Z,1.5
2023-05-01T13:55:00.507Z,1.5
2023-05-01T13:56:17.007Z,1.41
2023-05-01T13:57:34.010Z,2.67
2023-05-01T13:58:51.053Z,2.75
2023-05-01T14:00:08.027Z,3.12
2023-05-01T14:01:25.087Z,1.81
2023-05-01T14:02:42.560Z,2.02
2023-05-01T14:03:59.048Z,2.93
2023-05-01T14:05:15.985Z,2.37
2023-05-01T14:06:33.083Z,1.58
2023-05-01T14:07:50.154Z,1.04
2023-05-01T14:09:07.004Z,1.74
2023-05-01T14:10:24.001Z,1.78
2023-05-01T14:11:41.360Z,1.81
2023-05-01T14:12:58.124Z,2.21
2023-05-01T14:14:15.317Z,2.3
2023-05-01T14:15:32.017Z,2.26
2023-05-01T14:16:49.195Z,1.94
2023-05-01T14:18:06.071Z,2.13
2023-05-01T14:19:23.105Z,3.77
2023-05-01T14:20:40.016Z,2.69
2023-05-01T14:21:57.082Z,1.42
2023-05-01T14:23:14.049Z,2.3
2023-05-01T14:24:31.016Z,1.43
2023-05-01T14:25:48.083Z,1.67
2023-05-01T14:27:05.088Z,1.41
2023-05-01T14:28:22.044Z,2.18
2023-05-01T14:29:40.086Z,2.42
2023-05-01T14:30:57.137Z,2.61
2023-05-01T14:32:14.195Z,2.67
2023-05-01T14:33:34.046Z,2.82
2023-05-01T14:34:53.227Z,2.71
2023-05-01T14:36:10.107Z,2.8
2023-05-01T14:37:27.170Z,2.39
2023-05-01T14:38:44.057Z,2.15
2023-05-01T14:40:01.109Z,1.57
2023-05-01T14:41:18.166Z,0.93
2023-05-01T14:42:35.579Z,1.73
2023-05-01T14:43:52.085Z,1.94
2023-05-01T14:45:09.185Z,1.01
2023-05-01T14:46:26.131Z,1.43
2023-05-01T14:47:43.083Z,1.96
2023-05-01T14:49:00.189Z,2.22
2023-05-01T14:50:17.066Z,2.36
2023-05-01T14:51:34.085Z,2.56
2023-05-01T14:52:51.239Z,1.8
2023-05-01T14:54:08.095Z,2.34
2023-05-01T14:55:25.137Z,1.86
2023-05-01T14:56:42.150Z,2.9
2023-05-01T14:57:59.083Z,1.46
2023-05-01T14:59:16.094Z,2.75
2023-05-01T15:00:33.104Z,2.18
2023-05-01T15:01:50.124Z,1.96
2023-05-01T15:03:07.189Z,1.99
2023-05-01T15:04:24.195Z,2.45
2023-05-01T15:05:41.126Z,1.85
2023-05-01T15:06:58.093Z,1.91
2023-05-01T15:08:15.213Z,2.09
2023-05-01T15:09:32.116Z,1.64
2023-05-01T15:10:49.108Z,1.46
2023-05-01T15:12:07.304Z,1.83
2023-05-01T15:13:23.127Z,2.35
2023-05-01T15:14:40.113Z,2.06
2023-05-01T15:15:57.872Z,1.57
2023-05-01T15:17:15.135Z,1.46
2023-05-01T15:18:32.977Z,1.74
2023-05-01T15:19:50.148Z,2.19
2023-05-01T15:21:07.186Z,2.63
2023-05-01T15:22:24.125Z,2.06
2023-05-01T15:23:41.193Z,2.23
2023-05-01T15:24:58.447Z,2.34
2023-05-01T15:26:15.143Z,2.54
2023-05-01T15:27:32.126Z,2.37
2023-05-01T15:28:49.233Z,0.73
2023-05-01T15:30:06.169Z,2.03
2023-05-01T15:31:23.252Z,1.6
2023-05-01T15:32:41.952Z,1.16
2023-05-01T15:33:59.227Z,1.62
2023-05-01T15:35:16.212Z,1.38
2023-05-01T15:36:33.148Z,2.49
2023-05-01T15:37:50.158Z,2.66
2023-05-01T15:39:07.294Z,1.89
2023-05-01T15:40:24.220Z,2.11
2023-05-01T15:41:41.247Z,2.28
2023-05-01T15:42:58.197Z,1.39
2023-05-01T15:44:15.218Z,1.5
2023-05-01T15:45:32.374Z,1.41
2023-05-01T15:46:49.273Z,1.82
2023-05-01T15:48:06.250Z,2.58
2023-05-01T15:49:23.176Z,1.83
2023-05-01T15:50:40.219Z,1.46
2023-05-01T15:51:57.191Z,1.76
2023-05-01T15:53:14.240Z,2.09
2023-05-01T15:54:31.232Z,2.14
2023-05-01T15:55:48.224Z,1.2
2023-05-01T15:57:05.179Z,2.13
2023-05-01T15:58:22.193Z,2.52
2023-05-01T15:59:39.265Z,2.24
2023-05-01T16:00:56.309Z,2.21
2023-05-01T16:02:13.293Z,2.55
2023-05-01T16:03:30.316Z,2.24
2023-05-01T16:04:47.277Z,1.46
2023-05-01T16:06:04.313Z,1.93
2023-05-01T16:07:21.261Z,1.47
2023-05-01T16:08:38.196Z,1.5
2023-05-01T16:09:55.308Z,1.99
2023-05-01T16:11:12.260Z,2.23
2023-05-01T16:12:29.266Z,2.22
2023-05-01T16:13:46.248Z,1.9
2023-05-01T16:15:03.224Z,3.02
2023-05-01T16:16:20.243Z,1.85
2023-05-01T16:17:37.224Z,2.4
2023-05-01T16:18:54.313Z,3.47
2023-05-01T16:20:11.265Z,1.54
2023-05-01T16:21:28.219Z,2.24
2023-05-01T16:22:45.256Z,1.89
2023-05-01T16:24:02.238Z,1.18
2023-05-01T16:25:19.287Z,0.86
2023-05-01T16:26:36.246Z,1.21
2023-05-01T16:27:53.215Z,1.95
2023-05-01T16:29:10.248Z,1.92
2023-05-01T16:30:27.234Z,2.05
2023-05-01T16:31:44.328Z,2
2023-05-01T16:33:01.341Z,2.23
2023-05-01T16:34:18.345Z,2.1
2023-05-01T16:35:35.234Z,1.97
2023-05-01T16:36:52.280Z,2.04
2023-05-01T16:38:09.252Z,2.15
2023-05-01T16:39:26.310Z,2.47
2023-05-01T16:40:43.316Z,2.5
2023-05-01T16:42:00.285Z,2.44
2023-05-01T16:43:17.303Z,2.09
2023-05-01T16:44:34.310Z,1.45
2023-05-01T16:45:51.311Z,1.83
2023-05-01T16:47:08.264Z,2.34
2023-05-01T16:48:25.295Z,2.31
2023-05-01T16:49:42.299Z,1.72
2023-05-01T16:50:59.302Z,1.92
2023-05-01T16:52:16.294Z,1.11
2023-05-01T16:53:33.264Z,1.96
2023-05-01T16:54:50.262Z,1.53
2023-05-01T16:56:07.443Z,1.16
2023-05-01T16:57:24.282Z,1.99
2023-05-01T16:58:41.274Z,1.12
2023-05-01T16:59:58.466Z,1.36
2023-05-01T17:01:15.322Z,1.42
2023-05-01T17:02:32.368Z,1.62
2023-05-01T17:03:49.308Z,1.48
2023-05-01T17:05:06.364Z,1.1
2023-05-01T17:06:23.352Z,1.42
2023-05-01T17:07:40.315Z,0.82
2023-05-01T17:08:57.334Z,0.82
2023-05-01T17:10:14.298Z,1.18
2023-05-01T17:11:32.094Z,1.45
2023-05-01T17:12:48.297Z,0.93
2023-05-01T17:14:05.387Z,1.33
2023-05-01T17:15:22.308Z,0.99
2023-05-01T17:16:39.719Z,0.74
2023-05-01T17:17:56.320Z,1.18
2023-05-01T17:19:13.405Z,1.43
2023-05-01T17:20:30.350Z,1.17
2023-05-01T17:21:47.314Z,1.03
2023-05-01T17:23:04.330Z,0.99
2023-05-01T17:24:21.378Z,1.42
2023-05-01T17:25:38.349Z,1.07
2023-05-01T17:26:55.343Z,1.04
2023-05-01T17:28:12.345Z,0.7
2023-05-01T17:29:29.342Z,0.88
2023-05-01T17:30:46.396Z,0.91
2023-05-01T17:32:03.501Z,1.05
2023-05-01T17:33:20.362Z,0.6
2023-05-01T17:34:37.378Z,0.56